Time;durP1;ratioP1;P1;durP2;ratioP2;P2;SDS_P1;SDS_P2;PMS_P1;PMS_P2;Temp;Humidity;BMP_temperature;BMP_pressure;BME280_temperature;BME280_humidity;BME280_pressure;Samples;Min_cycle;Max_cycle;Signal;HPM_P1;HPM_P2
2023/02/25 00:01:24;;;;;;;21.05;3.92;;;1.70;99.90;;;;;;5071875;28;20047;-65
2023/02/25 00:03:52;;;;;;;23.23;3.80;;;1.70;99.90;;;;;;5069189;28;20041;-65
2023/02/25 00:06:18;;;;;;;17.20;3.97;;;1.70;99.90;;;;;;5073770;28;20050;-66
2023/02/25 00:08:45;;;;;;;20.80;4.03;;;1.60;99.90;;;;;;5067098;28;20480;-66
2023/02/25 00:11:12;;;;;;;34.47;4.07;;;1.70;99.90;;;;;;5073891;28;20043;-66
2023/02/25 00:13:40;;;;;;;25.67;3.25;;;1.60;99.90;;;;;;5072117;28;20068;-65
2023/02/25 00:16:07;;;;;;;13.93;3.00;;;1.60;99.90;;;;;;5071918;28;20048;-66
2023/02/25 00:18:32;;;;;;;25.88;4.40;;;1.60;99.90;;;;;;5059298;28;20062;-66
2023/02/25 00:20:59;;;;;;;21.73;3.22;;;1.60;99.90;;;;;;5056123;28;20484;-66
2023/02/25 00:23:25;;;;;;;21.48;3.70;;;1.50;99.90;;;;;;5056346;28;20492;-68
2023/02/25 00:26:02;;;;;;;19.02;3.15;;;1.50;99.90;;;;;;5058683;28;20033;-65
2023/02/25 00:28:28;;;;;;;13.52;2.88;;;1.50;99.90;;;;;;5055907;28;20040;-65
2023/02/25 00:30:54;;;;;;;16.92;3.15;;;1.50;99.90;;;;;;5055600;28;20467;-66
2023/02/25 00:33:19;;;;;;;17.90;2.95;;;1.60;99.90;;;;;;5056000;28;20036;-66
2023/02/25 00:35:45;;;;;;;15.27;2.70;;;1.50;99.90;;;;;;5054566;28;20119;-66
2023/02/25 00:38:11;;;;;;;24.98;3.45;;;1.50;99.90;;;;;;5062065;28;20508;-66
2023/02/25 00:40:38;;;;;;;14.85;2.70;;;1.50;99.90;;;;;;5064058;28;20467;-65
2023/02/25 00:43:03;;;;;;;15.30;3.70;;;1.60;99.90;;;;;;5059528;28;20033;-66
2023/02/25 00:45:29;;;;;;;12.02;2.80;;;1.50;99.90;;;;;;5058471;28;20045;-67
2023/02/25 00:47:54;;;;;;;17.40;4.03;;;1.50;99.90;;;;;;5061378;28;20110;-65
2023/02/25 00:50:20;;;;;;;21.38;3.28;;;1.50;99.90;;;;;;5063636;28;20228;-66
2023/02/25 00:52:46;;;;;;;17.73;2.97;;;1.40;99.90;;;;;;5061183;28;20119;-65
2023/02/25 00:55:11;;;;;;;15.88;3.53;;;1.40;99.90;;;;;;5061188;28;20037;-66
2023/02/25 00:57:37;;;;;;;20.77;3.05;;;1.40;99.90;;;;;;5063275;28;20032;-65
2023/02/25 01:00:09;;;;;;;19.05;3.15;;;1.40;99.90;;;;;;5063753;28;20119;-64
2023/02/25 01:02:35;;;;;;;23.27;4.45;;;1.40;99.90;;;;;;5060070;28;20024;-66
2023/02/25 01:05:00;;;;;;;20.73;3.47;;;1.40;99.90;;;;;;5061263;28;20099;-64
2023/02/25 01:07:26;;;;;;;22.63;4.10;;;1.40;99.90;;;;;;5058934;28;20448;-67
2023/02/25 01:09:55;;;;;;;20.85;3.08;;;1.40;99.90;;;;;;5064094;28;20029;-68
2023/02/25 01:12:21;;;;;;;19.65;3.05;;;1.50;99.90;;;;;;5060065;28;20052;-67
2023/02/25 01:14:48;;;;;;;21.90;3.28;;;1.50;99.90;;;;;;5060823;28;20717;-65
2023/02/25 01:17:13;;;;;;;29.70;3.30;;;1.50;99.90;;;;;;5060479;28;20079;-65
2023/02/25 01:19:39;;;;;;;28.85;3.78;;;1.50;99.90;;;;;;5063409;28;20492;-65
2023/02/25 01:22:06;;;;;;;17.67;2.97;;;1.50;99.90;;;;;;5060837;28;20477;-64
2023/02/25 01:24:33;;;;;;;18.60;2.88;;;1.50;99.90;;;;;;5062762;28;20119;-64
2023/02/25 01:27:02;;;;;;;17.83;3.50;;;1.50;99.90;;;;;;5057931;28;20040;-64
2023/02/25 01:29:38;;;;;;;20.15;3.65;;;1.50;99.90;;;;;;5057748;28;20052;-65
2023/02/25 01:32:06;;;;;;;34.92;3.67;;;1.50;99.90;;;;;;5057522;28;20040;-66
2023/02/25 01:34:32;;;;;;;26.35;3.45;;;1.40;99.90;;;;;;5061861;28;20041;-66
2023/02/25 01:36:58;;;;;;;29.77;3.15;;;1.50;99.90;;;;;;5061835;28;20048;-63
2023/02/25 01:39:25;;;;;;;20.05;2.95;;;1.60;99.90;;;;;;5062641;28;20041;-68
2023/02/25 01:41:53;;;;;;;11.93;2.67;;;1.50;99.90;;;;;;5057561;28;20044;-67
2023/02/25 01:44:22;;;;;;;17.38;2.60;;;1.50;99.90;;;;;;5062515;28;20044;-64
2023/02/25 01:46:50;;;;;;;19.77;3.45;;;1.50;99.90;;;;;;5059947;28;20040;-65
2023/02/25 01:49:35;;;;;;;21.52;2.70;;;1.40;99.90;;;;;;5061642;28;20102;-66
2023/02/25 01:52:10;;;;;;;15.73;3.25;;;1.30;99.90;;;;;;5057285;28;20082;-66
2023/02/25 01:54:36;;;;;;;19.10;2.78;;;1.30;99.90;;;;;;5060011;28;20041;-65
2023/02/25 01:57:05;;;;;;;17.02;2.10;;;1.40;99.90;;;;;;5060460;28;20032;-67
2023/02/25 01:59:31;;;;;;;7.70;1.65;;;1.40;99.90;;;;;;5062556;28;20562;-65
2023/02/25 02:01:57;;;;;;;8.23;1.58;;;1.30;99.90;;;;;;5055173;28;20036;-65
2023/02/25 02:04:23;;;;;;;6.63;1.52;;;1.30;99.90;;;;;;5052523;28;20045;-66
2023/02/25 02:06:50;;;;;;;5.50;1.25;;;1.30;99.90;;;;;;5061361;28;20063;-66
2023/02/25 02:09:20;;;;;;;5.55;1.30;;;1.30;99.90;;;;;;5059373;28;20543;-65
2023/02/25 02:11:45;;;;;;;4.55;1.55;;;1.30;99.90;;;;;;5056468;28;20060;-66
2023/02/25 02:14:17;;;;;;;10.10;2.15;;;1.20;99.90;;;;;;5059415;28;20692;-65
2023/02/25 02:17:21;;;;;;;10.32;2.05;;;1.30;99.90;;;;;;5054245;28;20170;-66
2023/02/25 02:20:11;;;;;;;8.98;1.48;;;1.40;99.90;;;;;;5059848;28;20040;-65
2023/02/25 02:22:40;;;;;;;10.27;2.38;;;1.40;99.90;;;;;;5059214;28;20041;-66
2023/02/25 02:25:11;;;;;;;7.10;1.88;;;1.40;99.90;;;;;;5059449;28;20064;-66
2023/02/25 02:27:49;;;;;;;12.13;2.25;;;1.50;99.90;;;;;;5057735;28;20048;-66
2023/02/25 02:30:35;;;;;;;10.80;2.47;;;1.40;99.90;;;;;;5058199;28;20053;-66
2023/02/25 02:33:08;;;;;;;21.77;3.13;;;1.30;99.90;;;;;;5037096;28;20048;-65
2023/02/25 02:36:02;;;;;;;15.30;3.58;;;1.40;99.90;;;;;;5058841;28;20291;-66
2023/02/25 02:38:53;;;;;;;14.57;2.72;;;1.30;99.90;;;;;;5060669;28;20891;-66
2023/02/25 02:41:36;;;;;;;15.90;4.05;;;1.40;99.90;;;;;;5057781;28;20044;-68
2023/02/25 02:44:23;;;;;;;15.65;2.75;;;1.40;99.90;;;;;;5057495;28;20053;-65
2023/02/25 02:46:56;;;;;;;14.35;3.17;;;1.50;99.90;;;;;;5056718;28;20094;-66
2023/02/25 02:49:57;;;;;;;15.43;3.03;;;1.40;99.90;;;;;;5059626;28;20044;-65
2023/02/25 02:52:28;;;;;;;17.02;2.53;;;1.40;99.90;;;;;;5050454;28;20068;-65
2023/02/25 02:55:02;;;;;;;11.63;2.33;;;1.40;99.90;;;;;;5056336;28;20219;-65
2023/02/25 02:57:29;;;;;;;12.35;2.22;;;1.40;99.90;;;;;;5059741;28;20496;-67
2023/02/25 03:00:16;;;;;;;11.90;1.90;;;1.50;99.90;;;;;;5062625;28;20036;-66
2023/02/25 03:02:47;;;;;;;12.48;2.33;;;1.50;99.90;;;;;;5059158;28;20039;-67
2023/02/25 03:05:16;;;;;;;9.95;2.80;;;1.50;99.90;;;;;;5059756;28;20037;-66
2023/02/25 03:07:47;;;;;;;18.75;2.92;;;1.50;99.90;;;;;;5059197;28;20718;-67
2023/02/25 03:10:18;;;;;;;22.05;2.42;;;1.50;99.90;;;;;;5058480;28;20136;-66
2023/02/25 03:12:43;;;;;;;10.50;2.00;;;1.40;99.90;;;;;;5057365;28;21369;-65
2023/02/25 03:15:10;;;;;;;9.85;2.60;;;1.50;99.90;;;;;;5059454;28;20043;-66
2023/02/25 03:17:43;;;;;;;12.10;2.38;;;1.50;99.90;;;;;;5058219;28;20181;-65
2023/02/25 03:20:23;;;;;;;16.20;2.30;;;1.50;99.90;;;;;;5058761;28;20040;-64
2023/02/25 03:22:52;;;;;;;13.77;2.20;;;1.40;99.90;;;;;;5056516;28;20083;-66
2023/02/25 03:25:28;;;;;;;23.40;3.95;;;1.50;99.90;;;;;;5058339;28;20178;-65
2023/02/25 03:27:56;;;;;;;13.05;2.70;;;1.50;99.90;;;;;;5060032;28;20037;-66
2023/02/25 03:30:50;;;;;;;17.77;3.53;;;1.50;99.90;;;;;;5053914;28;20033;-65
2023/02/25 03:33:38;;;;;;;12.63;2.70;;;1.50;99.90;;;;;;5052946;28;20045;-66
2023/02/25 03:36:12;;;;;;;18.02;3.88;;;1.50;99.90;;;;;;5059002;28;20094;-66
2023/02/25 03:38:43;;;;;;;22.17;3.75;;;1.50;99.90;;;;;;5060681;28;20033;-65
2023/02/25 03:41:12;;;;;;;18.02;3.28;;;1.40;99.90;;;;;;5057609;28;20029;-66
2023/02/25 03:43:47;;;;;;;19.88;3.72;;;1.50;99.90;;;;;;5058360;28;20180;-65
2023/02/25 03:46:15;;;;;;;16.13;2.97;;;1.50;99.90;;;;;;5056356;28;20048;-66
2023/02/25 03:48:42;;;;;;;17.40;2.83;;;1.50;99.90;;;;;;5059554;28;20036;-66
2023/02/25 03:51:08;;;;;;;14.38;3.45;;;1.50;99.90;;;;;;5053980;28;20424;-65
2023/02/25 03:53:34;;;;;;;12.65;2.67;;;1.50;99.90;;;;;;5061821;28;20070;-68
2023/02/25 03:56:05;;;;;;;19.73;3.30;;;1.50;99.90;;;;;;5062813;28;20052;-66
2023/02/25 03:58:37;;;;;;;14.90;2.63;;;1.50;99.90;;;;;;5063598;28;20048;-65
2023/02/25 04:01:11;;;;;;;15.43;2.90;;;1.50;99.90;;;;;;5060778;28;20040;-66
2023/02/25 04:03:36;;;;;;;16.38;2.85;;;1.50;99.90;;;;;;5059956;28;20041;-65
2023/02/25 04:06:02;;;;;;;17.95;4.07;;;1.50;99.90;;;;;;5061216;28;20044;-65
2023/02/25 04:08:28;;;;;;;23.40;3.75;;;1.50;99.90;;;;;;5062991;28;20367;-68
2023/02/25 04:10:54;;;;;;;23.60;3.70;;;1.40;99.90;;;;;;5063212;28;20036;-66
2023/02/25 04:13:19;;;;;;;14.80;3.10;;;1.40;99.90;;;;;;5063339;28;20123;-65
2023/02/25 04:15:46;;;;;;;10.95;3.33;;;1.40;99.90;;;;;;5063073;28;20098;-65
2023/02/25 04:18:12;;;;;;;16.17;3.10;;;1.30;99.90;;;;;;5061774;28;20044;-67
2023/02/25 04:20:39;;;;;;;15.43;3.05;;;1.40;99.90;;;;;;5063103;28;20139;-66
2023/02/25 04:23:05;;;;;;;15.43;2.83;;;1.40;99.90;;;;;;5062472;28;20423;-65
2023/02/25 04:25:32;;;;;;;10.07;2.33;;;1.40;99.90;;;;;;5062904;28;20036;-66
2023/02/25 04:27:58;;;;;;;13.15;1.95;;;1.50;99.90;;;;;;5062847;28;20064;-70
2023/02/25 04:30:24;;;;;;;9.30;2.80;;;1.50;99.90;;;;;;5062011;28;20071;-65
2023/02/25 04:32:49;;;;;;;10.68;2.33;;;1.50;99.90;;;;;;5062270;28;20036;-65
2023/02/25 04:35:15;;;;;;;7.32;1.98;;;1.50;99.90;;;;;;5062219;28;20036;-65
2023/02/25 04:37:42;;;;;;;6.72;1.52;;;1.60;99.90;;;;;;5062551;28;20044;-65
2023/02/25 04:40:18;;;;;;;5.03;1.70;;;1.60;99.90;;;;;;5063352;28;20040;-65
2023/02/25 04:42:44;;;;;;;;;;;1.60;99.90;;;;;;5063425;28;20040;-65
2023/02/25 04:45:10;;;;;;;8.67;1.50;;;1.50;99.90;;;;;;5077894;28;19924;-68
2023/02/25 04:47:36;;;;;;;13.30;2.35;;;1.50;99.90;;;;;;5062610;28;20083;-66
2023/02/25 04:50:03;;;;;;;9.68;2.35;;;1.50;99.90;;;;;;5059421;28;20056;-69
2023/02/25 04:52:29;;;;;;;11.85;2.85;;;1.40;99.90;;;;;;5058578;28;20048;-68
2023/02/25 04:54:55;;;;;;;14.68;2.13;;;1.40;99.90;;;;;;5062389;28;20036;-64
2023/02/25 04:57:20;;;;;;;8.45;1.70;;;1.50;99.90;;;;;;5061556;28;20044;-65
2023/02/25 04:59:46;;;;;;;5.43;2.13;;;1.50;99.90;;;;;;5064681;28;20040;-66
2023/02/25 05:02:12;;;;;;;4.90;1.55;;;1.50;99.90;;;;;;5058400;28;20039;-66
2023/02/25 05:04:38;;;;;;;4.20;1.10;;;1.50;99.90;;;;;;5062902;28;20033;-64
2023/02/25 05:07:05;;;;;;;6.70;1.52;;;1.60;99.90;;;;;;5061876;28;20045;-67
2023/02/25 05:09:31;;;;;;;7.28;1.40;;;1.60;99.90;;;;;;5062822;28;20443;-65
2023/02/25 05:11:57;;;;;;;6.40;1.00;;;1.70;99.90;;;;;;5058915;28;20033;-65
2023/02/25 05:14:23;;;;;;;2.47;0.70;;;1.70;99.90;;;;;;5061187;28;20098;-64
2023/02/25 05:16:49;;;;;;;1.10;0.60;;;1.60;99.90;;;;;;5059100;28;20051;-66
2023/02/25 05:19:21;;;;;;;3.58;1.30;;;1.60;99.90;;;;;;5061779;28;20131;-66
2023/02/25 05:21:47;;;;;;;4.20;0.95;;;1.60;99.90;;;;;;5060434;28;20396;-65
2023/02/25 05:24:12;;;;;;;1.65;0.95;;;1.70;99.90;;;;;;5056512;28;20609;-66
2023/02/25 05:26:38;;;;;;;2.05;0.70;;;1.60;99.90;;;;;;5056280;28;20070;-66
2023/02/25 05:29:04;;;;;;;1.42;0.70;;;1.50;99.90;;;;;;5058244;28;20708;-68
2023/02/25 05:31:30;;;;;;;2.63;0.52;;;1.50;99.90;;;;;;5056736;28;20033;-63
2023/02/25 05:33:56;;;;;;;3.22;0.65;;;1.50;99.90;;;;;;5060553;28;20441;-66
2023/02/25 05:36:21;;;;;;;2.67;0.80;;;1.50;99.90;;;;;;5060152;28;20040;-66
2023/02/25 05:38:48;;;;;;;1.08;0.70;;;1.50;99.90;;;;;;5059796;28;20130;-65
2023/02/25 05:41:14;;;;;;;5.28;0.93;;;1.40;99.90;;;;;;5056060;28;20044;-65
2023/02/25 05:43:40;;;;;;;5.28;0.70;;;1.40;99.90;;;;;;5059933;28;20068;-64
2023/02/25 05:46:10;;;;;;;3.30;1.52;;;1.50;99.90;;;;;;5060760;28;20133;-66
2023/02/25 05:48:37;;;;;;;3.40;1.25;;;1.50;99.90;;;;;;5060416;28;20515;-69
2023/02/25 05:51:06;;;;;;;4.78;1.90;;;1.40;99.90;;;;;;5060050;28;20067;-68
2023/02/25 05:53:33;;;;;;;2.33;1.33;;;1.40;99.90;;;;;;5055891;28;21071;-65
2023/02/25 05:56:03;;;;;;;5.18;1.35;;;1.30;99.90;;;;;;5052922;28;20127;-65
2023/02/25 05:58:29;;;;;;;5.20;1.35;;;1.30;99.90;;;;;;5061766;28;20250;-65
2023/02/25 06:00:54;;;;;;;2.08;0.90;;;1.30;99.90;;;;;;5058308;28;20091;-68
2023/02/25 06:03:20;;;;;;;2.10;0.77;;;1.10;99.90;;;;;;5057464;28;20098;-66
2023/02/25 06:05:46;;;;;;;1.65;0.80;;;1.20;99.90;;;;;;5056377;28;20049;-66
2023/02/25 06:08:12;;;;;;;5.20;1.20;;;1.20;99.90;;;;;;5062023;28;20175;-65
2023/02/25 06:10:38;;;;;;;3.63;1.00;;;1.20;99.90;;;;;;5058522;28;20123;-62
2023/02/25 06:13:08;;;;;;;3.03;0.77;;;1.20;99.90;;;;;;5060600;28;20036;-63
2023/02/25 06:15:38;;;;;;;2.33;0.80;;;1.30;99.90;;;;;;5059835;28;20083;-67
2023/02/25 06:18:04;;;;;;;2.88;0.73;;;1.30;99.90;;;;;;5062235;28;20036;-62
2023/02/25 06:20:30;;;;;;;3.50;0.90;;;1.30;99.90;;;;;;5057952;28;20040;-65
2023/02/25 06:22:57;;;;;;;2.20;0.80;;;1.40;99.90;;;;;;5059150;28;20040;-67
2023/02/25 06:25:28;;;;;;;4.95;0.80;;;1.50;99.90;;;;;;5060496;28;20185;-66
2023/02/25 06:27:55;;;;;;;1.77;0.60;;;1.50;99.90;;;;;;5055976;28;20047;-68
2023/02/25 06:30:20;;;;;;;2.45;1.00;;;1.40;99.90;;;;;;5051544;28;20056;-65
2023/02/25 06:32:46;;;;;;;0.43;0.30;;;1.20;99.90;;;;;;5055690;28;20485;-65
2023/02/25 06:35:13;;;;;;;0.88;0.40;;;1.20;99.90;;;;;;5052250;28;20036;-65
2023/02/25 06:37:38;;;;;;;2.50;0.40;;;1.20;99.90;;;;;;5059083;28;20048;-69
2023/02/25 06:40:06;;;;;;;0.20;0.20;;;1.20;99.90;;;;;;5059526;28;20040;-66
2023/02/25 06:42:32;;;;;;;0.20;0.20;;;1.20;99.90;;;;;;5058396;28;20082;-64
2023/02/25 06:44:57;;;;;;;8.98;0.35;;;1.20;99.90;;;;;;5051978;28;20067;-69
2023/02/25 06:47:23;;;;;;;0.30;0.10;;;1.20;99.90;;;;;;5054596;28;20514;-66
2023/02/25 06:49:49;;;;;;;0.43;0.17;;;1.10;99.90;;;;;;5051020;28;20040;-66
2023/02/25 06:52:14;;;;;;;0.20;0.20;;;1.10;99.90;;;;;;5057297;28;20029;-65
2023/02/25 06:54:40;;;;;;;0.70;0.28;;;1.10;99.90;;;;;;5054344;22;20111;-64
2023/02/25 06:57:05;;;;;;;0.25;0.20;;;1.10;99.90;;;;;;5058611;28;20134;-65
2023/02/25 06:59:34;;;;;;;3.15;0.30;;;1.10;99.90;;;;;;5059414;28;20090;-66
2023/02/25 07:02:00;;;;;;;0.70;0.20;;;1.20;99.90;;;;;;5060215;28;20514;-66
2023/02/25 07:04:26;;;;;;;0.88;0.20;;;1.30;99.90;;;;;;5059100;28;20071;-62
2023/02/25 07:06:51;;;;;;;0.52;0.20;;;1.30;99.90;;;;;;5057777;28;20051;-65
2023/02/25 07:09:17;;;;;;;0.20;0.20;;;1.30;99.90;;;;;;5058409;28;20454;-64
2023/02/25 07:11:42;;;;;;;1.38;0.20;;;1.40;99.90;;;;;;5059183;28;20060;-67
2023/02/25 07:14:08;;;;;;;0.60;0.25;;;1.50;99.90;;;;;;5059137;28;20123;-64
2023/02/25 07:16:33;;;;;;;0.50;0.20;;;1.60;99.90;;;;;;5058664;28;20045;-62
2023/02/25 07:19:01;;;;;;;0.90;0.20;;;1.60;99.90;;;;;;5058670;28;20048;-68
2023/02/25 07:21:28;;;;;;;0.65;0.30;;;1.60;99.90;;;;;;5058660;28;20122;-65
2023/02/25 07:23:54;;;;;;;0.32;0.20;;;1.60;99.90;;;;;;5042196;28;20036;-73
2023/02/25 07:26:19;;;;;;;0.20;0.20;;;1.50;99.90;;;;;;5056949;28;20410;-65
2023/02/25 07:28:47;;;;;;;0.63;0.20;;;1.60;99.90;;;;;;5065263;28;20044;-67
2023/02/25 07:31:17;;;;;;;2.92;0.32;;;1.60;99.90;;;;;;5063618;28;20039;-65
2023/02/25 07:33:43;;;;;;;0.55;0.20;;;1.50;99.90;;;;;;5060155;28;20040;-64
2023/02/25 07:36:10;;;;;;;1.45;0.55;;;1.50;99.90;;;;;;5060851;28;20097;-65
2023/02/25 07:38:36;;;;;;;0.93;0.68;;;1.50;99.90;;;;;;5064073;28;20067;-64
2023/02/25 07:41:10;;;;;;;3.65;1.10;;;1.60;99.90;;;;;;5062397;28;20561;-65
2023/02/25 07:43:36;;;;;;;1.08;0.70;;;1.70;99.90;;;;;;5061004;28;20491;-64
2023/02/25 07:46:03;;;;;;;0.50;0.30;;;1.80;99.90;;;;;;5062047;28;20033;-66
2023/02/25 07:48:29;;;;;;;0.50;0.40;;;1.60;99.90;;;;;;5064890;28;20444;-64
2023/02/25 07:50:55;;;;;;;0.63;0.45;;;1.50;99.90;;;;;;5046236;28;20572;-65
2023/02/25 07:53:21;;;;;;;0.47;0.20;;;1.50;99.90;;;;;;5066900;28;20048;-67
2023/02/25 07:55:49;;;;;;;1.27;0.45;;;1.40;99.90;;;;;;5064432;28;20036;-65
2023/02/25 07:58:14;;;;;;;1.75;0.63;;;1.40;99.90;;;;;;5066087;28;20059;-65
2023/02/25 08:00:40;;;;;;;2.60;1.08;;;1.40;99.90;;;;;;5065463;28;20040;-66
2023/02/25 08:03:06;;;;;;;7.50;1.58;;;1.40;99.90;;;;;;5064191;28;20041;-65
2023/02/25 08:05:36;;;;;;;5.65;1.40;;;1.30;99.90;;;;;;5062548;28;20041;-66
2023/02/25 08:08:03;;;;;;;6.22;1.67;;;1.50;99.90;;;;;;5062420;28;20040;-66
2023/02/25 08:10:28;;;;;;;10.80;1.77;;;1.50;99.90;;;;;;5062006;28;20047;-63
2023/02/25 08:12:54;;;;;;;8.77;2.03;;;1.70;99.90;;;;;;5063439;28;20037;-64
2023/02/25 08:15:20;;;;;;;8.38;2.00;;;1.70;99.90;;;;;;5062278;28;20040;-63
2023/02/25 08:17:49;;;;;;;13.95;2.40;;;2.00;99.90;;;;;;5062258;28;20399;-62
2023/02/25 08:20:15;;;;;;;7.53;2.03;;;2.00;99.90;;;;;;5061044;28;20403;-64
2023/02/25 08:22:41;;;;;;;8.90;2.08;;;2.00;99.90;;;;;;5062735;28;20044;-65
2023/02/25 08:25:07;;;;;;;6.68;1.95;;;2.10;99.90;;;;;;5062020;28;20049;-64
2023/02/25 08:27:34;;;;;;;8.70;2.20;;;2.10;99.90;;;;;;5062826;28;20036;-65
2023/02/25 08:29:59;;;;;;;11.18;2.40;;;1.90;99.90;;;;;;5063612;28;20036;-64
2023/02/25 08:32:26;;;;;;;8.57;2.33;;;1.60;99.90;;;;;;5060437;28;20721;-64
2023/02/25 08:34:55;;;;;;;12.07;2.47;;;1.70;99.90;;;;;;5071469;28;20040;-66
2023/02/25 08:37:22;;;;;;;11.50;2.42;;;1.90;99.90;;;;;;5061775;28;20044;-67
2023/02/25 08:39:48;;;;;;;10.63;2.53;;;1.90;99.90;;;;;;5062593;28;20047;-65
2023/02/25 08:42:17;;;;;;;9.40;2.40;;;1.90;99.90;;;;;;5061364;28;20036;-65
2023/02/25 08:44:43;;;;;;;13.73;2.80;;;2.00;99.90;;;;;;5062893;28;20040;-66
2023/02/25 08:47:09;;;;;;;11.02;2.13;;;2.20;99.90;;;;;;5061853;28;20488;-66
2023/02/25 08:49:35;;;;;;;9.98;2.30;;;2.30;99.90;;;;;;5062082;28;20039;-67
2023/02/25 08:52:00;;;;;;;15.55;2.72;;;2.20;99.90;;;;;;5062297;28;20081;-65
2023/02/25 08:54:26;;;;;;;10.75;2.72;;;2.10;99.90;;;;;;5062475;28;20756;-65
2023/02/25 08:56:54;;;;;;;10.45;1.88;;;2.00;99.90;;;;;;5061714;28;20086;-65
2023/02/25 08:59:20;;;;;;;12.65;2.92;;;2.10;99.90;;;;;;5063339;28;20044;-67
2023/02/25 09:01:47;;;;;;;7.20;2.42;;;2.20;99.90;;;;;;5061879;28;20771;-67
2023/02/25 09:04:20;;;;;;;11.32;2.25;;;2.10;99.90;;;;;;5062873;28;20044;-65
2023/02/25 09:06:46;;;;;;;12.82;2.38;;;1.80;99.90;;;;;;5060910;28;20272;-66
2023/02/25 09:09:16;;;;;;;13.98;3.30;;;1.70;99.90;;;;;;5062257;28;20131;-66
2023/02/25 09:11:42;;;;;;;8.80;2.85;;;1.80;99.90;;;;;;5059462;28;20052;-67
2023/02/25 09:14:09;;;;;;;7.28;1.90;;;1.90;99.90;;;;;;5060801;28;20041;-64
2023/02/25 09:16:35;;;;;;;12.38;2.20;;;2.00;99.90;;;;;;5062230;28;20078;-65
2023/02/25 09:19:00;;;;;;;12.45;2.40;;;2.20;99.90;;;;;;5061515;28;20083;-67
2023/02/25 09:21:26;;;;;;;10.15;1.70;;;2.40;99.90;;;;;;5061701;28;20040;-66
2023/02/25 09:23:52;;;;;;;8.18;2.22;;;2.50;99.90;;;;;;5062684;28;20039;-65
2023/02/25 09:26:19;;;;;;;9.25;2.30;;;2.40;99.90;;;;;;5061671;28;20044;-66
2023/02/25 09:28:46;;;;;;;7.07;1.92;;;2.40;99.90;;;;;;5064245;28;20093;-66
2023/02/25 09:31:12;;;;;;;9.85;2.38;;;2.40;99.90;;;;;;5061834;28;20262;-66
2023/02/25 09:33:38;;;;;;;10.68;1.83;;;2.40;99.90;;;;;;5063366;28;20796;-67
2023/02/25 09:36:07;;;;;;;7.88;1.95;;;2.60;99.90;;;;;;5062602;28;20056;-65
2023/02/25 09:38:37;;;;;;;5.30;1.95;;;2.90;99.90;;;;;;5065216;28;20039;-67
2023/02/25 09:41:15;;;;;;;8.98;2.35;;;2.80;99.90;;;;;;5062940;28;20047;-66
2023/02/25 09:43:42;;;;;;;5.03;1.90;;;2.90;99.90;;;;;;5060457;28;20059;-67
2023/02/25 09:46:17;;;;;;;7.97;2.05;;;2.60;99.90;;;;;;5061623;28;20041;-66
2023/02/25 09:48:52;;;;;;;5.88;1.63;;;2.50;99.90;;;;;;5062763;28;20448;-66
2023/02/25 09:51:31;;;;;;;10.05;2.28;;;2.60;99.90;;;;;;5060603;28;20048;-66
2023/02/25 09:54:17;;;;;;;10.15;2.08;;;2.70;99.90;;;;;;5060226;28;20040;-64
2023/02/25 09:56:42;;;;;;;8.50;2.53;;;2.90;99.90;;;;;;5061242;28;20059;-66
2023/02/25 09:59:17;;;;;;;10.25;2.25;;;2.90;99.90;;;;;;5063116;28;20048;-65
2023/02/25 10:01:51;;;;;;;8.52;2.75;;;2.90;99.90;;;;;;5056827;28;20041;-66
2023/02/25 10:04:36;;;;;;;15.27;1.88;;;2.90;99.90;;;;;;5060268;28;20055;-64
2023/02/25 10:07:14;;;;;;;7.47;2.17;;;2.70;99.90;;;;;;5057176;28;20041;-65
2023/02/25 10:09:52;;;;;;;9.35;2.63;;;2.80;99.90;;;;;;5059951;28;20068;-64
2023/02/25 10:12:40;;;;;;;5.50;1.90;;;2.90;99.90;;;;;;5061117;28;20041;-66
2023/02/25 10:15:26;;;;;;;10.32;2.28;;;2.70;99.90;;;;;;5061360;28;20059;-64
2023/02/25 10:18:05;;;;;;;8.32;2.28;;;2.70;99.90;;;;;;5061061;28;20381;-65
2023/02/25 10:20:52;;;;;;;3.58;1.42;;;3.30;99.90;;;;;;5057481;28;20029;-65
2023/02/25 10:23:59;;;;;;;11.95;2.70;;;3.50;99.90;;;;;;5061123;28;20033;-66
2023/02/25 10:26:32;;;;;;;5.85;1.48;;;4.20;99.90;;;;;;5053808;28;20590;-64
2023/02/25 10:29:06;;;;;;;15.15;1.95;;;3.80;99.90;;;;;;5061794;28;20041;-66
2023/02/25 10:31:33;;;;;;;3.90;1.38;;;3.80;99.90;;;;;;5057872;28;20036;-66
2023/02/25 10:34:19;;;;;;;7.80;1.70;;;3.50;99.90;;;;;;5061334;28;20090;-66
2023/02/25 10:36:52;;;;;;;4.20;1.20;;;3.20;99.90;;;;;;5057519;28;20048;-66
2023/02/25 10:39:17;;;;;;;7.07;1.40;;;3.10;99.90;;;;;;5061714;28;20125;-66
2023/02/25 10:41:43;;;;;;;4.00;1.55;;;3.00;99.90;;;;;;5061969;28;20064;-66
2023/02/25 10:44:14;;;;;;;8.30;1.65;;;2.60;99.90;;;;;;5062136;28;20131;-68
2023/02/25 10:46:53;;;;;;;10.02;1.60;;;2.10;99.90;;;;;;5061628;28;20091;-67
2023/02/25 10:49:25;;;;;;;6.40;1.35;;;2.10;99.90;;;;;;5063495;28;20105;-65
2023/02/25 10:52:16;;;;;;;5.78;1.50;;;2.20;99.90;;;;;;5060539;28;20131;-65
2023/02/25 10:54:50;;;;;;;10.73;1.58;;;1.80;99.90;;;;;;5061471;28;20079;-66
2023/02/25 10:57:32;;;;;;;6.72;1.67;;;1.90;99.90;;;;;;5065362;28;20097;-66
2023/02/25 11:00:05;;;;;;;8.88;1.02;;;2.10;99.90;;;;;;5062314;28;20036;-67
2023/02/25 11:02:39;;;;;;;10.50;1.45;;;1.90;99.90;;;;;;5058196;28;20036;-65
2023/02/25 11:05:05;;;;;;;10.18;2.55;;;1.90;99.90;;;;;;5042579;28;20028;-66
2023/02/25 11:07:40;;;;;;;7.82;1.30;;;2.00;99.90;;;;;;5058802;28;20403;-66
2023/02/25 11:10:20;;;;;;;8.23;1.70;;;2.00;99.90;;;;;;5058444;28;20049;-67
2023/02/25 11:12:52;;;;;;;11.05;1.67;;;2.10;99.90;;;;;;5060500;28;20581;-64
2023/02/25 11:15:33;;;;;;;8.48;1.83;;;2.10;99.90;;;;;;5056140;28;20507;-68
2023/02/25 11:18:06;;;;;;;5.57;1.35;;;2.10;99.90;;;;;;5059090;28;20071;-66
2023/02/25 11:20:33;;;;;;;7.70;1.60;;;2.00;99.90;;;;;;5059524;28;20463;-67
2023/02/25 11:22:59;;;;;;;5.85;1.50;;;2.20;99.90;;;;;;5062386;28;20114;-64
2023/02/25 11:25:54;;;;;;;10.75;1.75;;;2.50;99.90;;;;;;5061175;28;20047;-64
2023/02/25 11:28:37;;;;;;;6.72;1.60;;;3.10;99.90;;;;;;5040590;28;20053;-66
2023/02/25 11:31:08;;;;;;;8.48;2.08;;;3.50;99.90;;;;;;5058311;28;20032;-64
2023/02/25 11:33:38;;;;;;;12.88;1.88;;;3.50;99.90;;;;;;5062000;28;20047;-65
2023/02/25 11:36:05;;;;;;;13.02;2.17;;;3.30;99.90;;;;;;5058933;28;20048;-64
2023/02/25 11:38:42;;;;;;;8.63;1.75;;;3.40;99.90;;;;;;5060489;28;20044;-65
2023/02/25 11:41:20;;;;;;;10.07;1.80;;;3.20;99.90;;;;;;5061354;28;20460;-64
2023/02/25 11:43:47;;;;;;;7.88;1.92;;;3.00;99.90;;;;;;5025849;28;20051;-64
2023/02/25 11:46:21;;;;;;;12.13;2.20;;;3.00;99.90;;;;;;5063117;28;20044;-64
2023/02/25 11:49:14;;;;;;;11.93;2.00;;;3.10;99.90;;;;;;5060214;28;20037;-63
2023/02/25 11:51:50;;;;;;;8.13;1.85;;;3.00;99.90;;;;;;5058317;28;20109;-63
2023/02/25 11:55:00;;;;;;;7.93;2.00;;;3.00;99.90;;;;;;5058766;28;20040;-65
2023/02/25 11:57:50;;;;;;;11.82;1.95;;;3.10;99.90;;;;;;5060449;28;20105;-64
2023/02/25 12:04:01;;;;;;;11.98;2.85;;;3.40;99.90;;;;;;5060791;28;20475;-65
2023/02/25 12:06:35;;;;;;;9.50;1.83;;;3.80;99.90;;;;;;5041907;28;20036;-65
2023/02/25 12:09:06;;;;;;;8.38;1.60;;;3.90;99.90;;;;;;5058742;28;20048;-66
2023/02/25 12:12:05;;;;;;;7.88;1.77;;;3.70;99.90;;;;;;5058654;28;20041;-67
2023/02/25 12:14:49;;;;;;;9.40;1.55;;;3.60;99.90;;;;;;5062416;28;20487;-65
2023/02/25 12:17:53;;;;;;;7.68;1.40;;;3.30;99.90;;;;;;5063696;28;20040;-66
2023/02/25 12:20:31;;;;;;;20.27;1.80;;;2.90;99.90;;;;;;5061058;28;20500;-66
2023/02/25 12:22:56;;;;;;;7.63;1.73;;;2.90;99.90;;;;;;5065343;28;20040;-65
2023/02/25 12:25:49;;;;;;;4.68;1.33;;;2.90;99.90;;;;;;5067244;28;20090;-66
2023/02/25 12:28:29;;;;;;;5.88;1.50;;;2.70;99.90;;;;;;5063236;28;20125;-65
2023/02/25 12:31:00;;;;;;;5.72;1.30;;;2.60;99.90;;;;;;5044221;28;20039;-66
2023/02/25 12:33:49;;;;;;;7.60;1.77;;;2.70;99.90;;;;;;5063043;28;20151;-65
2023/02/25 12:36:22;;;;;;;8.13;1.58;;;2.90;99.90;;;;;;5062888;28;20067;-66
2023/02/25 12:39:25;;;;;;;7.10;1.58;;;3.00;99.90;;;;;;5063747;28;20075;-66
2023/02/25 12:42:09;;;;;;;7.20;1.80;;;2.70;99.90;;;;;;5062533;28;20040;-66
2023/02/25 12:44:54;;;;;;;8.68;1.85;;;2.80;99.90;;;;;;5062362;28;20047;-66
2023/02/25 12:47:24;;;;;;;8.98;1.67;;;2.90;99.90;;;;;;5063850;28;20048;-67
2023/02/25 12:50:14;;;;;;;7.40;1.60;;;3.00;99.90;;;;;;5064173;28;20093;-65
2023/02/25 12:53:28;;;;;;;6.75;1.75;;;2.90;99.90;;;;;;5064395;28;20131;-66
2023/02/25 12:56:09;;;;;;;4.90;1.50;;;2.90;99.90;;;;;;5050171;28;20040;-67
2023/02/25 12:58:48;;;;;;;6.85;1.45;;;2.80;99.90;;;;;;5063906;28;20039;-67
2023/02/25 13:01:29;;;;;;;8.18;2.33;;;2.60;99.90;;;;;;5064195;28;20489;-65
2023/02/25 13:04:28;;;;;;;15.18;1.83;;;2.60;99.90;;;;;;5062673;28;20399;-67
2023/02/25 13:07:02;;;;;;;8.13;1.30;;;2.40;99.90;;;;;;5062402;28;20039;-68
2023/02/25 13:09:31;;;;;;;9.02;2.08;;;2.40;99.90;;;;;;5060385;28;20040;-67
2023/02/25 13:12:08;;;;;;;7.97;1.40;;;2.30;99.90;;;;;;5042668;28;20852;-65
2023/02/25 13:14:52;;;;;;;9.38;1.80;;;2.50;99.90;;;;;;5061103;28;20082;-66
2023/02/25 13:17:42;;;;;;;9.18;2.30;;;2.70;99.90;;;;;;5057759;28;20068;-65